Aviation Digital Data Service (ADDS)

Output produced by METARs form (1411 UTC 24 April 2014)
found at http://aviationweather.gov/adds/metars/
 
KPBG 241126Z 2412/2512 32014G24KT P6SM OVC060 
     FM241500 33018G28KT P6SM BKN060 
     FM242300 32008KT P6SM SCT060 
     FM250100 32007KT P6SM SKC